Time;durP1;ratioP1;P1;durP2;ratioP2;P2;SDS_P1;SDS_P2;PMS_P1;PMS_P2;Temp;Humidity;BMP_temperature;BMP_pressure;BME280_temperature;BME280_humidity;BME280_pressure;Samples;Min_cycle;Max_cycle;Signal;HPM_P1;HPM_P2
2022/02/02 00:00:38;;;;;;;;;;;;;;;18.92;47.63;101081.44;2067909;28;19960;-65
2022/02/02 00:01:58;;;;;;;;;;;;;;;18.92;47.71;101080.59;2064853;28;20847;-66
2022/02/02 00:03:05;;;;;;;;;;;;;;;18.92;47.71;101077.84;2063225;28;19917;-66
2022/02/02 00:04:07;;;;;;;;;;;;;;;18.92;47.73;101072.38;2069146;28;19967;-66
2022/02/02 00:05:36;;;;;;;;;;;;;;;18.92;47.65;101084.19;2067274;28;20272;-65
2022/02/02 00:06:42;;;;;;;;;;;;;;;18.93;47.85;101079.56;2065686;28;20003;-65
2022/02/02 00:07:59;;;;;;;;;;;;;;;18.91;47.70;101076.09;2060619;28;19964;-65
2022/02/02 00:09:09;;;;;;;;;;;;;;;18.90;47.74;101068.91;2063975;28;20462;-65
2022/02/02 00:10:33;;;;;;;;;;;;;;;18.92;47.82;101069.66;2066591;28;19916;-65
2022/02/02 00:12:49;;;;;;;;;;;;;;;18.93;47.60;101068.66;2064592;28;20058;-65
2022/02/02 00:20:00;;;;;;;;;;;;;;;18.96;47.73;101062.91;2064751;28;20000;-65
2022/02/02 00:21:21;;;;;;;;;;;;;;;18.95;47.71;101055.72;2069294;28;19917;-66
2022/02/02 00:22:27;;;;;;;;;;;;;;;18.94;47.64;101057.59;2071315;28;19908;-65
2022/02/02 00:23:34;;;;;;;;;;;;;;;18.95;47.73;101061.19;2066765;28;20731;-65
2022/02/02 00:25:46;;;;;;;;;;;;;;;18.93;47.74;101057.72;2068230;28;19967;-66
2022/02/02 00:26:48;;;;;;;;;;;;;;;18.94;47.63;101064.94;2072225;28;20418;-65
2022/02/02 00:27:53;;;;;;;;;;;;;;;18.92;47.59;101064.19;2067924;28;19917;-66
2022/02/02 00:29:00;;;;;;;;;;;;;;;18.92;47.63;101054.13;2068365;28;19925;-66
2022/02/02 00:30:03;;;;;;;;;;;;;;;18.91;47.53;101051.50;2067880;28;19943;-65
2022/02/02 00:31:07;;;;;;;;;;;;;;;18.91;47.53;101051.50;2067613;28;20021;-65
2022/02/02 00:32:40;;;;;;;;;;;;;;;18.91;47.60;101048.78;2066259;28;19917;-65
2022/02/02 00:33:48;;;;;;;;;;;;;;;18.90;47.64;101061.56;2068147;28;19914;-66
2022/02/02 00:34:49;;;;;;;;;;;;;;;18.89;47.64;101056.22;2071422;28;20151;-65
2022/02/02 00:36:12;;;;;;;;;;;;;;;18.88;47.60;101049.03;2066621;28;19972;-65
2022/02/02 00:37:14;;;;;;;;;;;;;;;18.87;47.54;101047.31;2070550;28;19935;-66
2022/02/02 00:38:14;;;;;;;;;;;;;;;18.83;47.59;101050.25;2072855;28;19974;-66
2022/02/02 00:39:14;;;;;;;;;;;;;;;18.76;47.45;101050.91;2072842;28;20042;-66
2022/02/02 00:40:15;;;;;;;;;;;;;;;18.66;47.77;101056.19;2069788;28;19927;-66
2022/02/02 00:41:15;;;;;;;;;;;;;;;18.58;47.87;101053.22;2067702;28;20466;-67
2022/02/02 00:42:15;;;;;;;;;;;;;;;18.54;47.94;101057.19;2065290;28;19924;-65
2022/02/02 00:43:16;;;;;;;;;;;;;;;18.49;47.99;101053.97;2063115;28;19917;-65
2022/02/02 00:44:18;;;;;;;;;;;;;;;18.47;48.06;101050.47;2070379;28;19925;-65
2022/02/02 00:45:19;;;;;;;;;;;;;;;18.43;48.17;101047.13;2067498;28;20441;-65
2022/02/02 00:46:23;;;;;;;;;;;;;;;18.41;48.39;101052.72;2067595;28;19917;-64
2022/02/02 00:47:25;;;;;;;;;;;;;;;18.39;48.40;101049.22;2069383;28;20229;-66
2022/02/02 00:48:27;;;;;;;;;;;;;;;18.37;48.37;101051.25;2075822;28;19952;-65
2022/02/02 00:49:28;;;;;;;;;;;;;;;18.37;48.45;101051.25;2073721;28;19917;-65
2022/02/02 00:50:28;;;;;;;;;;;;;;;18.37;48.43;101051.25;2070038;28;20266;-65
2022/02/02 00:51:38;;;;;;;;;;;;;;;18.36;48.25;101054.94;2069365;28;20466;-66
2022/02/02 00:52:38;;;;;;;;;;;;;;;18.36;48.38;101052.22;2069094;28;19999;-66
2022/02/02 00:53:38;;;;;;;;;;;;;;;18.35;48.48;101041.44;2071356;28;19921;-66
2022/02/02 00:54:39;;;;;;;;;;;;;;;18.34;48.47;101048.72;2068269;28;19916;-65
2022/02/02 00:55:39;;;;;;;;;;;;;;;18.35;48.54;101052.34;2073476;28;19919;-66
2022/02/02 00:56:40;;;;;;;;;;;;;;;18.34;48.27;101051.47;2069766;28;19920;-66
2022/02/02 00:57:40;;;;;;;;;;;;;;;18.35;48.36;101044.16;2067889;28;20479;-65
2022/02/02 00:58:40;;;;;;;;;;;;;;;18.34;48.48;101042.41;2067698;28;19956;-65
2022/02/02 00:59:40;;;;;;;;;;;;;;;18.33;48.46;101038.81;2066779;28;19909;-65
2022/02/02 01:00:42;;;;;;;;;;;;;;;18.33;48.37;101044.28;2071148;28;19917;-64
2022/02/02 01:01:42;;;;;;;;;;;;;;;18.33;48.44;101038.81;2067137;28;19966;-62
2022/02/02 01:02:43;;;;;;;;;;;;;;;18.32;48.30;101037.06;2069060;28;19917;-65
2022/02/02 01:03:43;;;;;;;;;;;;;;;18.33;48.50;101037.94;2068723;28;20418;-65
2022/02/02 01:04:43;;;;;;;;;;;;;;;18.31;48.50;101039.94;2069547;28;19960;-65
2022/02/02 01:05:43;;;;;;;;;;;;;;;18.30;48.51;101033.59;2069356;28;20610;-64
2022/02/02 01:06:54;;;;;;;;;;;;;;;18.31;48.63;101035.34;2067681;28;19921;-65
2022/02/02 01:10:21;;;;;;;;;;;;;;;18.28;48.35;101029.25;2074178;28;20008;-65
2022/02/02 01:14:24;;;;;;;;;;;;;;;18.24;48.55;101034.09;2069277;28;19917;-65
2022/02/02 01:21:30;;;;;;;;;;;;;;;18.18;48.79;101024.53;2064931;28;19921;-65
2022/02/02 01:27:50;;;;;;;;;;;;;;;18.21;48.67;101012.50;2067039;28;19917;-64
2022/02/02 01:28:51;;;;;;;;;;;;;;;18.21;48.80;101007.91;2066363;28;20812;-64
2022/02/02 01:29:51;;;;;;;;;;;;;;;18.20;48.75;101006.19;2068382;28;19983;-64
2022/02/02 01:30:52;;;;;;;;;;;;;;;18.21;48.81;101009.78;2069099;28;20684;-64
2022/02/02 01:31:53;;;;;;;;;;;;;;;18.23;48.67;101006.91;2067294;28;19928;-64
2022/02/02 01:32:53;;;;;;;;;;;;;;;18.23;48.74;101005.06;2072109;28;19967;-64
2022/02/02 01:33:54;;;;;;;;;;;;;;;18.24;48.56;101003.19;2068167;28;20062;-64
2022/02/02 01:34:55;;;;;;;;;;;;;;;18.25;48.76;101007.66;2071734;28;19917;-64
2022/02/02 01:35:55;;;;;;;;;;;;;;;18.24;48.79;101006.78;2065739;28;19960;-64
2022/02/02 01:36:56;;;;;;;;;;;;;;;18.24;48.57;101009.50;2074016;28;19920;-64
2022/02/02 01:37:56;;;;;;;;;;;;;;;18.25;48.76;101008.53;2065653;28;20022;-64
2022/02/02 01:38:58;;;;;;;;;;;;;;;18.24;48.86;101012.25;2070210;28;19917;-63
2022/02/02 01:40:04;;;;;;;;;;;;;;;18.26;48.77;101012.13;2063792;28;19956;-65
2022/02/02 01:41:10;;;;;;;;;;;;;;;18.25;48.71;101014.00;2065417;28;19921;-64
2022/02/02 01:42:14;;;;;;;;;;;;;;;18.26;48.75;101007.53;2068487;28;20603;-65
2022/02/02 01:43:29;;;;;;;;;;;;;;;18.26;48.57;101010.28;2070869;28;19912;-61
2022/02/02 01:44:45;;;;;;;;;;;;;;;18.26;48.74;101013.00;2066346;28;19917;-65
2022/02/02 01:45:53;;;;;;;;;;;;;;;18.28;48.51;101013.75;2068083;28;20027;-65
2022/02/02 01:46:54;;;;;;;;;;;;;;;18.28;48.54;101008.28;2067189;28;19921;-64
2022/02/02 01:50:48;;;;;;;;;;;;;;;18.31;48.58;101012.63;2067798;28;20394;-64
2022/02/02 01:55:01;;;;;;;;;;;;;;;18.33;48.32;101000.59;2066853;28;20050;-64
2022/02/02 01:56:03;;;;;;;;;;;;;;;18.35;48.45;101003.22;2068099;28;20539;-65
2022/02/02 01:57:17;;;;;;;;;;;;;;;18.36;48.47;101005.81;2066862;28;19972;-65
2022/02/02 01:58:38;;;;;;;;;;;;;;;18.36;48.25;101005.81;2067974;28;19917;-65
2022/02/02 01:59:39;;;;;;;;;;;;;;;18.38;48.34;101009.28;2064816;28;19917;-65
2022/02/02 02:00:39;;;;;;;;;;;;;;;18.40;48.34;101004.56;2069031;28;20351;-65
2022/02/02 02:01:39;;;;;;;;;;;;;;;18.39;48.31;101002.81;2067087;28;19917;-65
2022/02/02 02:02:40;;;;;;;;;;;;;;;18.42;48.17;100998.97;2066712;28;19916;-64
2022/02/02 02:03:40;;;;;;;;;;;;;;;18.43;48.12;101004.31;2066839;28;19913;-64
2022/02/02 02:04:41;;;;;;;;;;;;;;;18.44;48.19;101005.19;2066652;28;19964;-65
2022/02/02 02:05:41;;;;;;;;;;;;;;;18.44;48.02;101002.44;2068540;28;20760;-64
2022/02/02 02:06:41;;;;;;;;;;;;;;;18.46;48.03;100994.16;2067613;28;19917;-64
2022/02/02 02:07:42;;;;;;;;;;;;;;;18.48;48.15;100994.91;2067059;28;19909;-65
2022/02/02 02:08:42;;;;;;;;;;;;;;;18.47;48.14;100999.50;2067659;28;19928;-65
2022/02/02 02:09:43;;;;;;;;;;;;;;;18.49;48.08;100999.34;2070671;28;19936;-64
2022/02/02 02:10:43;;;;;;;;;;;;;;;18.51;48.08;100997.38;2068674;28;19921;-64
2022/02/02 02:12:00;;;;;;;;;;;;;;;18.52;47.96;100999.09;2066974;28;20624;-63
2022/02/02 02:13:09;;;;;;;;;;;;;;;18.54;47.82;100991.66;2072811;28;19948;-64
2022/02/02 02:14:39;;;;;;;;;;;;;;;18.55;47.88;100998.88;2072352;28;20277;-64
2022/02/02 02:15:31;;;;;;;;;;;;;;;18.55;47.88;100990.69;2069402;28;21001;-64
2022/02/02 02:16:32;;;;;;;;;;;;;;;18.55;47.93;100988.81;2067404;28;19917;-64
2022/02/02 02:17:32;;;;;;;;;;;;;;;18.56;47.96;100990.53;2070412;28;20086;-63
2022/02/02 02:18:32;;;;;;;;;;;;;;;18.57;47.92;100985.94;2064606;28;19917;-64
2022/02/02 02:19:36;;;;;;;;;;;;;;;18.57;47.91;100980.47;2066565;28;20662;-64
2022/02/02 02:20:37;;;;;;;;;;;;;;;18.57;47.77;100980.47;2068671;28;20012;-64
2022/02/02 02:21:38;;;;;;;;;;;;;;;18.56;47.94;100979.63;2065676;28;20460;-63
2022/02/02 02:22:41;;;;;;;;;;;;;;;18.58;47.76;100982.22;2068911;28;19986;-64
2022/02/02 02:23:43;;;;;;;;;;;;;;;18.58;47.64;100976.78;2066852;28;20482;-64
2022/02/02 02:24:45;;;;;;;;;;;;;;;18.57;47.69;100981.38;2066982;28;20692;-64
2022/02/02 02:25:45;;;;;;;;;;;;;;;18.57;47.63;100983.22;2069288;28;20371;-63
2022/02/02 02:26:45;;;;;;;;;;;;;;;18.58;47.76;100983.09;2068203;28;19921;-65
2022/02/02 02:27:46;;;;;;;;;;;;;;;18.56;47.80;100978.75;2066023;28;20487;-64
2022/02/02 02:31:16;;;;;;;;;;;;;;;18.50;48.04;100979.28;2061887;28;19928;-63
2022/02/02 02:55:48;;;;;;;;;;;;;;;18.37;48.15;100971.19;2042464;28;20124;-63
2022/02/02 02:56:22;;;;;;;;;;;;;;;18.27;48.45;100957.41;2063675;28;20395;-63
2022/02/02 02:57:27;;;;;;;;;;;;;;;18.26;48.44;100955.69;2068474;28;19948;-63
2022/02/02 02:59:38;;;;;;;;;;;;;;;18.28;48.39;100953.72;2067323;28;19917;-63
2022/02/02 03:13:48;;;;;;;;;;;;;;;18.28;48.48;100948.25;2059051;28;19918;-64
2022/02/02 03:31:44;;;;;;;;;;;;;;;18.24;48.42;100946.75;2067124;28;19960;-64
2022/02/02 04:00:19;;;;;;;;;;;;;;;18.63;47.62;100919.91;2069562;28;19928;-65
2022/02/02 04:01:51;;;;;;;;;;;;;;;18.65;47.67;100923.41;2067245;28;19917;-64
2022/02/02 04:06:21;;;;;;;;;;;;;;;18.68;47.56;100916.81;2061222;28;20303;-64
2022/02/02 04:07:29;;;;;;;;;;;;;;;18.69;47.53;100919.44;2066910;28;19917;-63
2022/02/02 04:08:32;;;;;;;;;;;;;;;18.69;47.37;100916.69;2066294;28;20257;-64
2022/02/02 04:09:35;;;;;;;;;;;;;;;18.70;47.40;100917.56;2069803;28;19963;-64
2022/02/02 04:10:35;;;;;;;;;;;;;;;18.72;47.48;100908.25;2065322;28;19917;-64
2022/02/02 04:11:52;;;;;;;;;;;;;;;18.71;47.32;100906.47;2068676;28;19963;-63
2022/02/02 04:12:59;;;;;;;;;;;;;;;18.72;47.32;100907.38;2064336;28;20613;-63
2022/02/02 04:51:57;;;;;;;;;;;;;;;18.84;47.28;100887.25;2070917;28;19921;-63
2022/02/02 04:54:23;;;;;;;;;;;;;;;18.86;47.22;100898.91;2067713;28;19947;-64
2022/02/02 04:58:21;;;;;;;;;;;;;;;18.87;47.25;100888.88;2065973;28;19921;-64
2022/02/02 04:59:35;;;;;;;;;;;;;;;18.86;47.35;100885.25;2070427;28;19971;-63
2022/02/02 05:06:47;;;;;;;;;;;;;;;18.85;47.31;100876.19;2067330;28;20028;-64
2022/02/02 05:16:51;;;;;;;;;;;;;;;18.85;47.29;100889.84;2067990;28;20356;-64
2022/02/02 05:51:49;;;;;;;;;;;;;;;18.76;47.53;100892.47;2066914;28;19925;-63
2022/02/02 05:52:49;;;;;;;;;;;;;;;18.76;47.63;100904.25;2067687;28;19924;-64
2022/02/02 05:53:50;;;;;;;;;;;;;;;18.76;47.57;100907.00;2067064;28;20388;-64
2022/02/02 05:54:51;;;;;;;;;;;;;;;18.76;47.57;100900.66;2066134;28;19909;-64
2022/02/02 05:55:52;;;;;;;;;;;;;;;18.75;47.51;100904.38;2067977;28;20267;-64
2022/02/02 05:56:53;;;;;;;;;;;;;;;18.74;47.66;100898.06;2065514;28;19913;-64
2022/02/02 05:57:53;;;;;;;;;;;;;;;18.74;47.70;100895.31;2066912;28;19923;-64
2022/02/02 05:58:54;;;;;;;;;;;;;;;18.75;47.74;100901.66;2067607;28;20334;-64
2022/02/02 05:59:56;;;;;;;;;;;;;;;18.74;47.64;100906.25;2067811;28;19917;-64
2022/02/02 06:00:58;;;;;;;;;;;;;;;18.74;47.72;100906.25;2067759;28;19979;-63
2022/02/02 06:01:58;;;;;;;;;;;;;;;18.73;47.79;100907.22;2063284;28;20008;-63
2022/02/02 06:03:01;;;;;;;;;;;;;;;18.73;47.76;100903.63;2068193;28;19917;-63
2022/02/02 06:04:03;;;;;;;;;;;;;;;18.72;47.69;100902.78;2064836;28;19960;-63
2022/02/02 06:05:06;;;;;;;;;;;;;;;18.72;47.80;100910.97;2065616;28;20016;-65
2022/02/02 06:06:06;;;;;;;;;;;;;;;18.72;47.61;100905.50;2065743;28;20012;-63
2022/02/02 06:07:07;;;;;;;;;;;;;;;18.71;47.70;100903.75;2066120;28;19925;-63
2022/02/02 06:08:11;;;;;;;;;;;;;;;18.70;47.68;100902.03;2067917;28;20959;-63
2022/02/02 06:09:11;;;;;;;;;;;;;;;18.69;47.62;100903.03;2066857;28;19917;-63
2022/02/02 06:10:16;;;;;;;;;;;;;;;18.69;47.75;100902.16;2063009;28;20919;-63
2022/02/02 06:11:18;;;;;;;;;;;;;;;18.68;47.78;100904.00;2065643;28;19921;-64
2022/02/02 06:12:20;;;;;;;;;;;;;;;18.68;47.86;100904.00;2066743;28;20610;-64
2022/02/02 06:13:21;;;;;;;;;;;;;;;18.67;47.94;100894.09;2062516;28;19918;-64
2022/02/02 06:14:26;;;;;;;;;;;;;;;18.67;47.86;100896.84;2067994;28;19917;-63
2022/02/02 06:15:26;;;;;;;;;;;;;;;18.67;47.70;100905.03;2064352;28;20077;-63
2022/02/02 06:16:28;;;;;;;;;;;;;;;18.67;47.76;100898.66;2067267;28;19917;-64
2022/02/02 06:17:29;;;;;;;;;;;;;;;18.67;47.79;100910.47;2068352;28;19924;-63
2022/02/02 06:18:30;;;;;;;;;;;;;;;18.68;47.87;100909.47;2067684;28;19944;-63
2022/02/02 06:19:30;;;;;;;;;;;;;;;18.68;47.75;100912.22;2069156;28;19909;-63
2022/02/02 06:20:31;;;;;;;;;;;;;;;18.71;47.91;100911.09;2065915;28;19915;-63
2022/02/02 06:21:33;;;;;;;;;;;;;;;18.71;47.92;100906.47;2066287;28;20386;-64
2022/02/02 06:22:37;;;;;;;;;;;;;;;18.73;47.97;100909.09;2068406;28;20780;-64
2022/02/02 06:23:40;;;;;;;;;;;;;;;18.73;47.71;100912.69;2065981;28;19933;-64
2022/02/02 06:25:03;;;;;;;;;;;;;;;18.74;47.91;100905.34;2066259;28;19948;-64
2022/02/02 06:26:09;;;;;;;;;;;;;;;18.73;47.83;100912.69;2059978;28;19921;-64
2022/02/02 06:27:10;;;;;;;;;;;;;;;18.75;47.74;100913.44;2067365;28;19917;-64
2022/02/02 06:28:12;;;;;;;;;;;;;;;18.75;47.63;100907.97;2064975;28;20039;-64
2022/02/02 06:29:16;;;;;;;;;;;;;;;18.75;47.70;100912.56;2068688;28;19924;-64
2022/02/02 06:30:17;;;;;;;;;;;;;;;18.76;47.80;100912.47;2067000;28;19917;-64
2022/02/02 06:31:20;;;;;;;;;;;;;;;18.77;47.61;100911.47;2068680;28;20624;-64
2022/02/02 06:32:24;;;;;;;;;;;;;;;18.77;47.61;100911.47;2067140;28;19909;-64
2022/02/02 06:33:31;;;;;;;;;;;;;;;18.78;47.70;100915.06;2066473;28;19971;-64
2022/02/02 06:34:33;;;;;;;;;;;;;;;18.78;47.73;100913.19;2067621;28;19916;-64
2022/02/02 06:35:34;;;;;;;;;;;;;;;18.78;47.61;100909.59;2067816;28;20517;-64
2022/02/02 06:36:36;;;;;;;;;;;;;;;18.78;47.60;100913.19;2066497;28;20697;-64
2022/02/02 06:37:38;;;;;;;;;;;;;;;18.78;47.69;100907.75;2068613;28;19967;-64
2022/02/02 06:38:38;;;;;;;;;;;;;;;18.79;47.64;100922.25;2065633;28;20091;-64
2022/02/02 06:39:39;;;;;;;;;;;;;;;18.79;47.67;100914.97;2068590;28;19921;-64
2022/02/02 06:40:40;;;;;;;;;;;;;;;18.79;47.57;100920.41;2064602;28;19913;-64
2022/02/02 06:41:40;;;;;;;;;;;;;;;18.79;47.59;100920.41;2066083;28;19913;-64
2022/02/02 06:42:41;;;;;;;;;;;;;;;18.79;47.60;100916.78;2067809;28;20039;-64
2022/02/02 06:43:43;;;;;;;;;;;;;;;18.79;47.67;100914.97;2065618;28;19921;-64
2022/02/02 06:44:44;;;;;;;;;;;;;;;18.79;47.58;100920.41;2066041;28;20359;-64
2022/02/02 06:45:45;;;;;;;;;;;;;;;18.78;47.64;100924.13;2061552;28;19974;-64
2022/02/02 06:46:46;;;;;;;;;;;;;;;18.78;47.79;100924.13;2064437;28;19921;-64
2022/02/02 06:47:47;;;;;;;;;;;;;;;18.78;47.69;100923.25;2066017;28;19917;-64
2022/02/02 06:48:47;;;;;;;;;;;;;;;18.79;47.69;100930.44;2062659;28;19909;-64
2022/02/02 06:49:49;;;;;;;;;;;;;;;18.78;47.77;100924.13;2067848;28;19917;-65
2022/02/02 06:50:59;;;;;;;;;;;;;;;18.79;47.88;100930.44;2066008;28;19917;-65
2022/02/02 06:52:06;;;;;;;;;;;;;;;18.78;47.88;100928.72;2063466;28;20308;-65
2022/02/02 06:54:26;;;;;;;;;;;;;;;18.78;47.77;100924.13;2065410;28;19921;-65
2022/02/02 06:55:34;;;;;;;;;;;;;;;18.79;47.70;100930.44;2067614;28;19921;-64
2022/02/02 06:57:53;;;;;;;;;;;;;;;18.79;47.67;100933.19;2067794;28;19924;-64
2022/02/02 06:59:17;;;;;;;;;;;;;;;18.79;47.84;100942.28;2065821;28;19996;-65
2022/02/02 07:01:38;;;;;;;;;;;;;;;18.80;47.69;100944.00;2063981;28;19953;-64
2022/02/02 07:09:17;;;;;;;;;;;;;;;18.82;47.63;100950.19;2062927;28;19917;-64
2022/02/02 07:10:27;;;;;;;;;;;;;;;18.81;47.57;100951.22;2066663;28;19917;-64
2022/02/02 07:13:03;;;;;;;;;;;;;;;18.83;47.56;100951.94;2066713;28;19917;-64
2022/02/02 07:17:45;;;;;;;;;;;;;;;18.83;47.63;100953.78;2067874;28;19917;-64
2022/02/02 07:28:27;;;;;;;;;;;;;;;18.78;47.76;100948.72;2066959;28;20355;-64
2022/02/02 07:31:02;;;;;;;;;;;;;;;18.83;47.71;100949.19;2064512;28;19916;-66
2022/02/02 07:33:18;;;;;;;;;;;;;;;19.02;47.44;100954.00;2068447;28;20337;-64
2022/02/02 07:34:37;;;;;;;;;;;;;;;19.08;47.11;100952.59;2066003;28;19917;-62
2022/02/02 07:37:16;;;;;;;;;;;;;;;19.14;47.00;100946.63;2058480;28;19909;-62
2022/02/02 07:38:17;;;;;;;;;;;;;;;19.15;46.91;100950.22;2066712;28;20639;-63
2022/02/02 07:39:19;;;;;;;;;;;;;;;19.14;46.86;100946.63;2064440;28;20342;-62
2022/02/02 07:40:21;;;;;;;;;;;;;;;19.15;46.82;100948.34;2065926;28;19923;-63
2022/02/02 07:41:25;;;;;;;;;;;;;;;19.17;46.83;100951.84;2068002;28;19917;-63
2022/02/02 07:42:26;;;;;;;;;;;;;;;19.15;46.76;100952.97;2060997;28;20816;-64
2022/02/02 07:43:29;;;;;;;;;;;;;;;19.16;46.82;100961.03;2063245;28;20418;-63
2022/02/02 07:44:32;;;;;;;;;;;;;;;19.16;46.77;100961.03;2068071;28;19924;-65
2022/02/02 07:45:35;;;;;;;;;;;;;;;19.14;46.87;100963.03;2063259;28;20483;-64
2022/02/02 07:46:42;;;;;;;;;;;;;;;19.14;47.00;100968.50;2067046;28;19928;-63
2022/02/02 07:47:44;;;;;;;;;;;;;;;19.13;47.01;100974.94;2059070;28;20443;-62
2022/02/02 07:48:47;;;;;;;;;;;;;;;19.14;46.91;100976.69;2058514;28;19913;-63
2022/02/02 07:49:52;;;;;;;;;;;;;;;19.14;47.01;100976.69;2064716;28;19916;-61
2022/02/02 07:50:53;;;;;;;;;;;;;;;19.15;46.91;100980.28;2067611;28;19917;-64
2022/02/02 07:51:54;;;;;;;;;;;;;;;19.14;46.91;100976.69;2063262;28;19917;-62
2022/02/02 07:52:57;;;;;;;;;;;;;;;19.15;46.95;100972.94;2065454;28;19912;-62
2022/02/02 07:54:01;;;;;;;;;;;;;;;19.15;46.91;100972.94;2067744;28;20318;-62
2022/02/02 07:55:04;;;;;;;;;;;;;;;19.14;46.98;100971.22;2062995;28;19913;-62
2022/02/02 07:56:10;;;;;;;;;;;;;;;19.14;46.87;100971.22;2062502;28;19913;-62
2022/02/02 07:57:16;;;;;;;;;;;;;;;19.14;46.94;100968.50;2066156;28;20562;-62
2022/02/02 07:58:20;;;;;;;;;;;;;;;19.14;47.03;100967.63;2065025;28;20523;-64
2022/02/02 07:59:28;;;;;;;;;;;;;;;19.14;47.02;100957.56;2064584;28;19917;-63
2022/02/02 08:00:31;;;;;;;;;;;;;;;19.12;47.09;100965.03;2060952;28;19971;-64
2022/02/02 08:01:31;;;;;;;;;;;;;;;19.11;46.94;100962.41;2060018;28;19984;-63
2022/02/02 08:03:53;;;;;;;;;;;;;;;19.10;46.96;100960.69;2064303;28;19909;-64
2022/02/02 08:04:53;;;;;;;;;;;;;;;19.09;47.00;100965.28;2061709;28;20008;-62
2022/02/02 08:05:54;;;;;;;;;;;;;;;19.09;47.04;100965.28;2064327;28;19917;-62
2022/02/02 08:06:55;;;;;;;;;;;;;;;19.10;46.97;100967.00;2063945;28;19971;-62
2022/02/02 08:10:37;;;;;;;;;;;;;;;19.06;47.00;100960.94;2054853;28;19949;-62
2022/02/02 08:11:39;;;;;;;;;;;;;;;19.06;47.12;100960.94;2052877;28;19921;-64
2022/02/02 08:12:52;;;;;;;;;;;;;;;19.06;46.97;100966.41;2054829;28;19928;-63
2022/02/02 08:13:57;;;;;;;;;;;;;;;19.06;47.03;100965.56;2052291;28;20427;-63
2022/02/02 08:14:58;;;;;;;;;;;;;;;19.05;47.07;100958.34;2059515;28;20420;-62
2022/02/02 08:16:02;;;;;;;;;;;;;;;19.05;47.16;100952.88;2070961;28;20445;-62
2022/02/02 08:17:03;;;;;;;;;;;;;;;19.04;46.98;100956.63;2062555;28;20365;-62
2022/02/02 08:18:03;;;;;;;;;;;;;;;19.03;47.03;100955.75;2059834;28;19960;-62
2022/02/02 08:19:04;;;;;;;;;;;;;;;19.03;46.96;100953.03;2062538;28;19921;-61
2022/02/02 08:20:04;;;;;;;;;;;;;;;19.03;47.00;100954.84;2069450;28;19916;-63
2022/02/02 08:21:05;;;;;;;;;;;;;;;19.02;46.96;100958.59;2067721;28;20595;-62
2022/02/02 08:22:05;;;;;;;;;;;;;;;19.02;46.99;100961.34;2065146;28;20231;-62
2022/02/02 08:23:05;;;;;;;;;;;;;;;19.01;47.05;100956.84;2062092;28;19917;-62
2022/02/02 08:24:08;;;;;;;;;;;;;;;19.02;46.92;100961.34;2061952;28;20060;-63
2022/02/02 08:25:10;;;;;;;;;;;;;;;19.00;47.02;100961.44;2062594;28;20775;-62
2022/02/02 08:26:15;;;;;;;;;;;;;;;19.01;46.88;100962.31;2062063;28;20267;-62
2022/02/02 08:27:16;;;;;;;;;;;;;;;19.00;46.88;100955.13;2066956;28;20747;-62
2022/02/02 08:28:17;;;;;;;;;;;;;;;19.01;46.88;100951.38;2067678;28;20588;-62
2022/02/02 08:29:17;;;;;;;;;;;;;;;19.01;47.00;100959.56;2060048;28;20380;-62
2022/02/02 08:30:23;;;;;;;;;;;;;;;18.97;46.90;100952.66;2061678;28;20339;-64
2022/02/02 08:31:26;;;;;;;;;;;;;;;18.92;46.96;100957.63;2059796;28;19917;-62
2022/02/02 08:32:31;;;;;;;;;;;;;;;18.87;47.15;100949.81;2063830;28;19928;-61
2022/02/02 08:33:35;;;;;;;;;;;;;;;18.80;47.25;100952.19;2063674;28;19918;-62
2022/02/02 08:34:37;;;;;;;;;;;;;;;18.75;47.67;100951.66;2068722;28;19920;-61
2022/02/02 08:35:46;;;;;;;;;;;;;;;18.71;47.66;100950.19;2063534;28;19921;-61
2022/02/02 08:36:51;;;;;;;;;;;;;;;18.65;47.80;100950.69;2066116;28;20019;-61
2022/02/02 08:38:02;;;;;;;;;;;;;;;18.61;48.04;100944.59;2066298;28;19956;-62
2022/02/02 08:39:15;;;;;;;;;;;;;;;18.60;48.38;100952.94;2059897;28;20009;-65
2022/02/02 08:40:24;;;;;;;;;;;;;;;18.56;48.38;100948.72;2062406;28;19909;-61
2022/02/02 08:41:30;;;;;;;;;;;;;;;18.55;48.20;100949.72;2066813;28;19982;-63
2022/02/02 08:42:32;;;;;;;;;;;;;;;18.54;48.13;100958.91;2072870;28;19924;-62
2022/02/02 08:43:39;;;;;;;;;;;;;;;18.52;48.21;100963.59;2069646;28;19917;-62
2022/02/02 08:44:53;;;;;;;;;;;;;;;18.50;47.93;100960.16;2074841;28;19932;-62
2022/02/02 08:45:57;;;;;;;;;;;;;;;18.45;48.02;100963.25;2069881;28;19909;-62
2022/02/02 08:47:05;;;;;;;;;;;;;;;18.41;47.93;100964.50;2069037;28;21518;-61
2022/02/02 08:48:08;;;;;;;;;;;;;;;18.38;47.94;100973.81;2067056;28;19924;-62
2022/02/02 08:49:12;;;;;;;;;;;;;;;18.35;48.26;100970.47;2067753;28;19917;-62
2022/02/02 08:50:13;;;;;;;;;;;;;;;18.30;48.33;100973.56;2065419;28;19957;-62
2022/02/02 08:51:17;;;;;;;;;;;;;;;18.28;48.32;100974.69;2071733;28;19968;-64
2022/02/02 08:52:17;;;;;;;;;;;;;;;18.28;48.43;100970.09;2071815;28;19940;-64
2022/02/02 08:54:45;;;;;;;;;;;;;;;18.28;48.21;100974.69;2067764;28;20269;-62
2022/02/02 08:57:36;;;;;;;;;;;;;;;18.32;48.20;100976.16;2059198;28;19910;-64
2022/02/02 08:58:44;;;;;;;;;;;;;;;18.32;48.17;100987.06;2072535;28;19917;-64
2022/02/02 08:59:59;;;;;;;;;;;;;;;18.34;48.39;100977.75;2071991;28;19917;-63
2022/02/02 09:01:02;;;;;;;;;;;;;;;18.35;48.40;100976.78;2070095;28;20488;-64
2022/02/02 09:02:07;;;;;;;;;;;;;;;18.35;48.39;100965.88;2071557;28;19948;-62
2022/02/02 09:05:45;;;;;;;;;;;;;;;18.34;48.80;100964.09;2077187;28;19917;-62
2022/02/02 09:06:46;;;;;;;;;;;;;;;18.35;48.76;100967.72;2078396;28;19917;-64
2022/02/02 09:07:49;;;;;;;;;;;;;;;18.35;48.91;100968.59;2082958;28;20383;-63
2022/02/02 09:08:58;;;;;;;;;;;;;;;18.35;48.69;100973.19;2076129;28;19922;-63
2022/02/02 09:10:15;;;;;;;;;;;;;;;18.35;49.04;100967.72;2080695;28;19962;-63
2022/02/02 09:24:21;;;;;;;;;;;;;;;18.23;49.99;100966.84;2080406;28;20014;-66
2022/02/02 09:25:43;;;;;;;;;;;;;;;18.24;50.02;100971.31;2076132;28;19962;-66
2022/02/02 09:33:48;;;;;;;;;;;;;;;18.21;50.08;100966.09;2069860;28;19909;-63
2022/02/02 09:34:37;;;;;;;;;;;;;;;18.13;50.01;100968.59;2068082;28;19917;-63
2022/02/02 09:35:38;;;;;;;;;;;;;;;17.91;47.17;100967.56;2066234;28;20384;-64
2022/02/02 09:36:42;;;;;;;;;;;;;;;17.70;45.41;100969.22;2067553;28;19917;-64
2022/02/02 09:37:43;;;;;;;;;;;;;;;17.54;46.23;100967.69;2067356;28;19921;-64
2022/02/02 09:38:43;;;;;;;;;;;;;;;17.51;46.62;100967.91;2067044;28;19921;-64
2022/02/02 09:39:50;;;;;;;;;;;;;;;17.60;47.73;100968.19;2070431;28;19920;-63
2022/02/02 09:41:19;;;;;;;;;;;;;;;17.66;48.61;100964.97;2064733;28;19924;-64
2022/02/02 09:42:16;;;;;;;;;;;;;;;17.73;48.59;100974.41;2067090;28;20450;-67
2022/02/02 09:43:20;;;;;;;;;;;;;;;17.81;48.87;100965.66;2067166;28;19909;-64
2022/02/02 09:44:23;;;;;;;;;;;;;;;17.86;48.56;100964.34;2067093;28;19913;-64
2022/02/02 09:45:26;;;;;;;;;;;;;;;17.90;48.58;100967.66;2066883;28;20315;-64
2022/02/02 09:46:35;;;;;;;;;;;;;;;17.93;48.88;100965.59;2065368;28;19932;-65
2022/02/02 09:47:43;;;;;;;;;;;;;;;17.95;49.04;100974.50;2065232;28;19923;-64
2022/02/02 09:48:49;;;;;;;;;;;;;;;17.99;49.16;100970.53;2067119;28;20881;-65
2022/02/02 09:50:55;;;;;;;;;;;;;;;18.03;48.98;100975.75;2065449;28;19967;-65
2022/02/02 09:52:59;;;;;;;;;;;;;;;18.02;48.81;100969.44;2067890;28;19913;-65
2022/02/02 09:55:10;;;;;;;;;;;;;;;18.03;48.65;100976.63;2071816;28;19917;-65
2022/02/02 09:58:23;;;;;;;;;;;;;;;18.02;48.83;100974.03;2062826;28;19999;-65
2022/02/02 09:59:48;;;;;;;;;;;;;;;18.02;48.92;100979.47;2061915;28;19913;-63
2022/02/02 10:02:35;;;;;;;;;;;;;;;17.99;48.82;100981.44;2062382;28;20942;-63
2022/02/02 10:03:52;;;;;;;;;;;;;;;17.99;48.95;100978.72;2067977;28;19924;-63
2022/02/02 10:06:14;;;;;;;;;;;;;;;18.00;48.82;100983.19;2067908;28;20618;-63
2022/02/02 10:08:49;;;;;;;;;;;;;;;18.00;49.14;100979.59;2065944;28;19979;-61